Wichita Mid Continent Airport
KICT : now visible

Airfield :











YOU CAN JOIN US ON...

 
LOGIN :

Register | Disclaimer

   EN    FR    IT 

 









Legend :    VFR   Marginal VFR   IFR   Intensive IFR   Very Intensive IFR
Visi :
Ceiling :
>= 8 km
>= 3000ft
5 to 8 km
1000 to 3000 ft
1500m to 5 km
500 to 1000 ft
800 to 1500m
200 to 500 ft
< 800m
< 200 ft
Symbols :   Thunderstorms  Fog  Heavy snow  Heavy precipitations  Wind > 20 kt






- Airport Elevation : 1333 ft
- IATA code : ICT


KICT - Wichita Mid Continent

CURRENT METAR :
  • 291653Z 36016G28KT 10SM FEW200 08/M01 A3016 RMK AO2 PK WND 34030/1638 SLP218 T00831011

EXPIRED METARs :
  • 291553Z 36017G28KT 10SM FEW160 FEW200 06/00 A3015 RMK AO2 PK WND 35028/1549 SLP215 T00610000
  • 291453Z 35016G25KT 10SM FEW120 SCT160 SCT200 04/01 A3012 RMK AO2 PK WND 34029/1401 SLP207 T00440006 51051

TAF KICT
Valid from the 29 at 12:00 until the 30 at 12:00 UTC


291120Z 2912/3012 36016G24KT P6SM BKN080
TEMPO 2912/2913 6SM -RA BR
FM291500 35016G24KT P6SM SCT100
FM300000 32004KT P6SM SKC
KZKC FIR / North America



MET'MAP, your aeronautical weather chart ! - Copyright ORBIFLY December 2007 - Disclaimer

ORBIFLY MET'MAP TEAM :

Programming & Development : Alexandra Zaïnal
Concept & original design : Baudouin d'Aumeries
Assistance for programming : Marc-Olivier Méhu
Technical & hardware support : Manuel Goepfert

Contact : metmap@orbifly.com




SOURCES & CREDITS :

   NOAA       Earth
Advisory